Time,TemperatureF,DewpointF,PressureIn,WindDirection,WindDirectionDegrees,WindSpeedMPH,WindSpeedGustMPH,Humidity,HourlyPrecipIn,Conditions,Clouds,dailyrainin,SoftwareType,DateUTC
2013-01-09 00:03:00,32.7,25.8,29.98,West,271,14.4,21.3,75,0.00,,,0.00,CWS Microserver 1.4,2013-01-09 06:03:00,
2013-01-09 00:08:00,32.5,25.7,29.98,West,259,10.0,21.3,75,0.00,,,0.00,CWS Microserver 1.4,2013-01-09 06:08:00,
2013-01-09 00:13:00,32.5,25.7,29.99,West,266,14.3,19.5,75,0.00,,,0.00,CWS Microserver 1.4,2013-01-09 06:13:00,
2013-01-09 00:18:00,32.3,25.6,29.99,West,272,14.1,19.8,76,0.00,,,0.00,CWS Microserver 1.4,2013-01-09 06:18:00,
2013-01-09 00:23:00,32.3,25.5,29.99,WSW,242,4.9,19.8,75,0.00,,,0.00,CWS Microserver 1.4,2013-01-09 06:23:00,
2013-01-09 00:28:00,32.3,25.5,29.99,West,265,8.0,19.1,75,0.00,,,0.00,CWS Microserver 1.4,2013-01-09 06:28:00,
2013-01-09 00:38:00,32.1,25.2,29.99,West,272,14.1,19.4,75,0.00,,,0.00,CWS Microserver 1.4,2013-01-09 06:38:00,
2013-01-09 00:43:00,32.0,25.3,30.00,West,262,12.9,20.0,76,0.00,,,0.00,CWS Microserver 1.4,2013-01-09 06:43:00,
2013-01-09 00:48:00,32.0,25.4,30.00,West,273,13.8,20.0,76,0.00,,,0.00,CWS Microserver 1.4,2013-01-09 06:48:00,
2013-01-09 00:53:00,31.9,25.4,30.00,West,275,15.0,20.3,76,0.00,,,0.00,CWS Microserver 1.4,2013-01-09 06:53:00,
2013-01-09 00:58:00,31.5,25.3,30.00,West,279,17.5,20.3,77,0.00,,,0.00,CWS Microserver 1.4,2013-01-09 06:58:00,
2013-01-09 01:03:00,31.9,25.6,30.00,West,277,10.8,19.8,77,0.00,,,0.00,CWS Microserver 1.4,2013-01-09 07:03:00,
2013-01-09 01:08:00,31.5,25.3,30.01,West,266,11.2,20.4,77,0.00,,,0.00,CWS Microserver 1.4,2013-01-09 07:08:00,
2013-01-09 01:13:00,31.3,25.3,30.01,West,271,16.7,20.4,78,0.00,,,0.00,CWS Microserver 1.4,2013-01-09 07:13:00,
2013-01-09 01:18:00,31.3,25.3,30.01,West,260,11.4,19.8,78,0.00,,,0.00,CWS Microserver 1.4,2013-01-09 07:18:00,
2013-01-09 01:23:00,31.1,25.2,30.01,West,260,14.8,20.2,78,0.00,,,0.00,CWS Microserver 1.4,2013-01-09 07:23:00,
2013-01-09 01:28:00,31.1,25.3,30.02,West,268,14.6,20.2,78,0.00,,,0.00,CWS Microserver 1.4,2013-01-09 07:28:00,
2013-01-09 01:33:00,31.1,25.4,30.02,WSW,256,15.1,20.5,79,0.00,,,0.00,CWS Microserver 1.4,2013-01-09 07:33:00,
2013-01-09 01:38:00,31.3,25.6,30.01,WSW,252,10.0,21.6,79,0.00,,,0.00,CWS Microserver 1.4,2013-01-09 07:38:00,
2013-01-09 01:43:00,31.5,25.8,30.02,WSW,257,14.6,21.6,79,0.00,,,0.00,CWS Microserver 1.4,2013-01-09 07:43:00,
2013-01-09 01:48:00,31.3,25.6,30.02,WSW,258,13.6,19.6,79,0.00,,,0.00,CWS Microserver 1.4,2013-01-09 07:48:00,
2013-01-09 01:53:00,31.1,25.5,30.02,West,260,13.0,19.6,79,0.00,,,0.00,CWS Microserver 1.4,2013-01-09 07:53:00,
2013-01-09 01:58:00,31.1,25.4,30.03,WNW,282,9.8,19.3,79,0.00,,,0.00,CWS Microserver 1.4,2013-01-09 07:58:00,
2013-01-09 02:03:00,31.0,25.4,30.03,West,278,7.3,18.4,79,0.00,,,0.00,CWS Microserver 1.4,2013-01-09 08:03:00,
2013-01-09 02:08:00,31.0,25.4,30.03,West,266,12.9,18.0,79,0.00,,,0.00,CWS Microserver 1.4,2013-01-09 08:08:00,
2013-01-09 02:13:00,30.6,25.2,30.03,WSW,238,7.7,18.0,80,0.00,,,0.00,CWS Microserver 1.4,2013-01-09 08:13:00,
2013-01-09 02:18:00,30.4,25.2,30.03,West,265,10.3,16.7,80,0.00,,,0.00,CWS Microserver 1.4,2013-01-09 08:18:00,
2013-01-09 02:23:00,30.6,25.4,30.03,West,273,10.8,17.4,80,0.00,,,0.00,CWS Microserver 1.4,2013-01-09 08:23:00,
2013-01-09 02:28:00,30.8,25.7,30.04,West,268,15.0,19.4,81,0.00,,,0.00,CWS Microserver 1.4,2013-01-09 08:28:00,
2013-01-09 02:33:00,30.6,25.5,30.04,West,262,15.0,19.4,81,0.00,,,0.00,CWS Microserver 1.4,2013-01-09 08:33:00,
2013-01-09 02:38:00,30.6,25.6,30.04,West,267,10.4,18.4,81,0.00,,,0.00,CWS Microserver 1.4,2013-01-09 08:38:00,
2013-01-09 02:43:00,30.4,25.6,30.04,West,261,8.7,17.2,82,0.00,,,0.00,CWS Microserver 1.4,2013-01-09 08:43:00,
2013-01-09 02:48:00,30.4,25.7,30.04,WSW,248,12.3,17.7,82,0.00,,,0.00,CWS Microserver 1.4,2013-01-09 08:48:00,
2013-01-09 02:53:00,30.6,25.9,30.05,WSW,247,10.4,18.0,82,0.00,,,0.00,CWS Microserver 1.4,2013-01-09 08:53:00,
2013-01-09 02:58:00,30.8,26.1,30.04,West,265,12.2,18.0,82,0.00,,,0.00,CWS Microserver 1.4,2013-01-09 08:58:00,
2013-01-09 03:03:00,31.0,26.1,30.05,WSW,255,13.6,20.1,81,0.00,,,0.00,CWS Microserver 1.4,2013-01-09 09:03:00,
2013-01-09 03:08:00,31.1,25.9,30.05,West,274,9.4,22.3,80,0.00,,,0.00,CWS Microserver 1.4,2013-01-09 09:08:00,
2013-01-09 03:13:00,31.1,25.8,30.05,West,262,9.7,22.3,80,0.00,,,0.00,CWS Microserver 1.4,2013-01-09 09:13:00,
2013-01-09 03:18:00,31.1,25.6,30.05,West,262,18.7,23.2,79,0.00,,,0.00,CWS Microserver 1.4,2013-01-09 09:18:00,
2013-01-09 03:23:00,31.3,25.7,30.05,West,272,18.1,27.7,79,0.00,,,0.00,CWS Microserver 1.4,2013-01-09 09:23:00,
2013-01-09 03:28:00,31.3,25.5,30.05,West,263,21.8,27.7,78,0.00,,,0.00,CWS Microserver 1.4,2013-01-09 09:28:00,
2013-01-09 03:33:00,31.5,25.6,30.05,West,266,18.7,25.5,78,0.00,,,0.00,CWS Microserver 1.4,2013-01-09 09:33:00,
2013-01-09 03:38:00,31.1,25.3,30.06,West,276,17.2,25.5,78,0.00,,,0.00,CWS Microserver 1.4,2013-01-09 09:38:00,
2013-01-09 03:43:00,31.0,25.4,30.06,WSW,239,11.5,22.3,79,0.00,,,0.00,CWS Microserver 1.4,2013-01-09 09:43:00,
2013-01-09 03:48:00,31.0,25.4,30.06,WSW,245,10.1,22.3,79,0.00,,,0.00,CWS Microserver 1.4,2013-01-09 09:48:00,
2013-01-09 03:53:00,31.0,25.3,30.06,West,267,14.8,22.3,79,0.00,,,0.00,CWS Microserver 1.4,2013-01-09 09:53:00,
2013-01-09 03:58:00,30.6,25.0,30.06,West,263,20.2,22.6,79,0.00,,,0.00,CWS Microserver 1.4,2013-01-09 09:58:00,
2013-01-09 04:03:00,30.6,25.1,30.06,West,263,18.4,23.7,79,0.00,,,0.00,CWS Microserver 1.4,2013-01-09 10:03:00,
2013-01-09 04:08:00,30.4,24.8,30.07,WSW,257,18.0,23.7,79,0.00,,,0.00,CWS Microserver 1.4,2013-01-09 10:08:00,
2013-01-09 04:13:00,30.8,25.1,30.07,West,262,17.8,25.7,79,0.00,,,0.00,CWS Microserver 1.4,2013-01-09 10:13:00,
2013-01-09 04:18:00,30.8,25.1,30.07,West,272,21.1,25.7,79,0.00,,,0.00,CWS Microserver 1.4,2013-01-09 10:18:00,
2013-01-09 04:23:00,30.6,24.8,30.07,West,274,19.6,26.3,78,0.00,,,0.00,CWS Microserver 1.4,2013-01-09 10:23:00,
2013-01-09 04:28:00,30.8,24.9,30.07,West,273,13.9,26.3,78,0.00,,,0.00,CWS Microserver 1.4,2013-01-09 10:28:00,
2013-01-09 04:33:00,30.8,24.9,30.08,West,265,17.8,28.0,78,0.00,,,0.00,CWS Microserver 1.4,2013-01-09 10:33:00,
2013-01-09 04:38:00,30.8,24.8,30.08,West,273,26.9,28.9,78,0.00,,,0.00,CWS Microserver 1.4,2013-01-09 10:38:00,
2013-01-09 04:43:00,30.8,24.9,30.08,West,269,20.6,28.9,78,0.00,,,0.00,CWS Microserver 1.4,2013-01-09 10:43:00,
2013-01-09 04:48:00,30.8,24.9,30.08,West,269,18.7,26.9,78,0.00,,,0.00,CWS Microserver 1.4,2013-01-09 10:48:00,
2013-01-09 04:53:00,30.6,24.9,30.08,West,277,10.7,25.8,79,0.00,,,0.00,CWS Microserver 1.4,2013-01-09 10:53:00,
2013-01-09 04:58:00,30.2,24.8,30.08,West,273,22.5,26.8,80,0.00,,,0.00,CWS Microserver 1.4,2013-01-09 10:58:00,
2013-01-09 05:03:00,30.4,24.9,30.08,West,278,18.8,26.8,79,0.00,,,0.00,CWS Microserver 1.4,2013-01-09 11:03:00,
2013-01-09 05:08:00,30.1,24.4,30.09,WNW,290,9.5,25.9,79,0.00,,,0.00,CWS Microserver 1.4,2013-01-09 11:08:00,
2013-01-09 05:13:00,29.5,24.2,30.09,West,276,19.6,25.9,80,0.00,,,0.00,CWS Microserver 1.4,2013-01-09 11:13:00,
2013-01-09 05:18:00,29.3,24.1,30.09,West,277,18.0,24.0,80,0.00,,,0.00,CWS Microserver 1.4,2013-01-09 11:18:00,
2013-01-09 05:23:00,29.3,23.9,30.09,West,272,20.3,24.5,79,0.00,,,0.00,CWS Microserver 1.4,2013-01-09 11:23:00,
2013-01-09 05:28:00,29.0,23.7,30.09,West,276,16.9,24.5,80,0.00,,,0.00,CWS Microserver 1.4,2013-01-09 11:28:00,
2013-01-09 05:33:00,29.0,23.7,30.10,West,278,13.0,20.3,80,0.00,,,0.00,CWS Microserver 1.4,2013-01-09 11:33:00,
2013-01-09 05:38:00,29.3,23.9,30.10,WNW,283,14.7,20.2,79,0.00,,,0.00,CWS Microserver 1.4,2013-01-09 11:38:00,
2013-01-09 05:43:00,29.3,23.6,30.11,WNW,284,16.9,21.7,79,0.00,,,0.00,CWS Microserver 1.4,2013-01-09 11:43:00,
2013-01-09 05:48:00,29.5,23.7,30.11,WNW,296,15.4,21.7,78,0.00,,,0.00,CWS Microserver 1.4,2013-01-09 11:48:00,
2013-01-09 05:53:00,30.1,23.7,30.11,WNW,288,14.8,22.0,76,0.00,,,0.00,CWS Microserver 1.4,2013-01-09 11:53:00,
2013-01-09 05:58:00,30.1,23.5,30.11,West,279,12.4,22.0,76,0.00,,,0.00,CWS Microserver 1.4,2013-01-09 11:58:00,
2013-01-09 06:03:00,29.9,23.3,30.11,WNW,289,14.9,19.4,76,0.00,,,0.00,CWS Microserver 1.4,2013-01-09 12:03:00,
2013-01-09 06:08:00,29.9,23.1,30.11,WNW,289,15.4,18.7,75,0.00,,,0.00,CWS Microserver 1.4,2013-01-09 12:08:00,
2013-01-09 06:13:00,29.7,22.9,30.11,WNW,294,9.9,18.7,75,0.00,,,0.00,CWS Microserver 1.4,2013-01-09 12:13:00,
2013-01-09 06:18:00,28.8,22.4,30.11,WNW,296,8.9,17.2,76,0.00,,,0.00,CWS Microserver 1.4,2013-01-09 12:18:00,
2013-01-09 06:28:00,27.9,21.9,30.12,WNW,293,7.1,12.6,77,0.00,,,0.00,CWS Microserver 1.4,2013-01-09 12:28:00,
2013-01-09 06:33:00,27.7,21.7,30.12,WNW,300,8.2,15.8,77,0.00,,,0.00,CWS Microserver 1.4,2013-01-09 12:33:00,
2013-01-09 06:38:00,27.9,21.9,30.12,WNW,289,9.7,15.8,77,0.00,,,0.00,CWS Microserver 1.4,2013-01-09 12:38:00,
2013-01-09 06:43:00,28.4,22.1,30.12,West,278,12.3,15.9,76,0.00,,,0.00,CWS Microserver 1.4,2013-01-09 12:43:00,
2013-01-09 06:48:00,28.3,21.8,30.12,WNW,284,13.5,15.9,76,0.00,,,0.00,CWS Microserver 1.4,2013-01-09 12:48:00,
2013-01-09 06:53:00,28.3,21.7,30.13,WNW,283,13.9,17.9,76,0.00,,,0.00,CWS Microserver 1.4,2013-01-09 12:53:00,
2013-01-09 06:58:00,28.1,21.4,30.13,WNW,282,12.4,17.9,75,0.00,,,0.00,CWS Microserver 1.4,2013-01-09 12:58:00,
2013-01-09 07:03:00,27.7,21.2,30.13,WNW,287,13.9,15.4,76,0.00,,,0.00,CWS Microserver 1.4,2013-01-09 13:03:00,
2013-01-09 07:08:00,27.5,21.0,30.14,WNW,284,10.3,14.9,76,0.00,,,0.00,CWS Microserver 1.4,2013-01-09 13:08:00,
2013-01-09 07:18:00,27.4,20.8,30.15,WNW,295,7.3,12.5,76,0.00,,,0.00,CWS Microserver 1.4,2013-01-09 13:18:00,
2013-01-09 07:23:00,27.2,20.7,30.14,WNW,285,7.5,11.0,76,0.00,,,0.00,CWS Microserver 1.4,2013-01-09 13:23:00,
2013-01-09 07:28:00,26.8,20.3,30.14,WNW,286,6.5,12.2,76,0.00,,,0.00,CWS Microserver 1.4,2013-01-09 13:28:00,
2013-01-09 07:33:00,26.6,20.2,30.14,WNW,284,9.1,12.2,76,0.00,,,0.00,CWS Microserver 1.4,2013-01-09 13:33:00,
2013-01-09 07:43:00,26.5,20.1,30.14,WNW,300,8.3,11.2,76,0.00,,,0.00,CWS Microserver 1.4,2013-01-09 13:43:00,
2013-01-09 07:48:00,25.7,19.8,30.14,NW,312,8.5,11.2,77,0.00,,,0.00,CWS Microserver 1.4,2013-01-09 13:48:00,
2013-01-09 07:53:00,26.1,19.8,30.14,NW,310,7.3,9.7,76,0.00,,,0.00,CWS Microserver 1.4,2013-01-09 13:53:00,
2013-01-09 07:58:00,26.1,19.8,30.15,West,279,7.2,11.0,76,0.00,,,0.00,CWS Microserver 1.4,2013-01-09 13:58:00,
2013-01-09 08:03:00,25.4,18.5,30.15,WNW,293,6.5,11.0,74,0.00,,,0.00,CWS Microserver 1.4,2013-01-09 14:03:00,
2013-01-09 08:08:00,24.8,18.9,30.15,WNW,288,8.1,10.5,78,0.00,,,0.00,CWS Microserver 1.4,2013-01-09 14:08:00,
2013-01-09 08:13:00,25.2,19.0,30.16,WNW,282,7.1,11.0,77,0.00,,,0.00,CWS Microserver 1.4,2013-01-09 14:13:00,
2013-01-09 08:18:00,25.2,19.2,30.17,West,275,10.4,12.1,77,0.00,,,0.00,CWS Microserver 1.4,2013-01-09 14:18:00,
2013-01-09 08:23:00,25.4,19.1,30.18,West,274,10.1,12.1,76,0.00,,,0.00,CWS Microserver 1.4,2013-01-09 14:23:00,
2013-01-09 08:28:00,25.6,19.1,30.18,West,273,10.2,11.3,75,0.00,,,0.00,CWS Microserver 1.4,2013-01-09 14:28:00,
2013-01-09 08:33:00,25.4,19.0,30.18,West,274,9.7,11.3,76,0.00,,,0.00,CWS Microserver 1.4,2013-01-09 14:33:00,
2013-01-09 08:38:00,25.2,18.6,30.18,West,278,7.0,10.7,75,0.00,,,0.00,CWS Microserver 1.4,2013-01-09 14:38:00,
2013-01-09 08:43:00,24.8,18.4,30.18,West,278,5.2,10.6,76,0.00,,,0.00,CWS Microserver 1.4,2013-01-09 14:43:00,
2013-01-09 08:48:00,25.7,19.3,30.19,West,269,5.5,8.5,76,0.00,,,0.00,CWS Microserver 1.4,2013-01-09 14:48:00,
2013-01-09 08:53:00,26.3,19.6,30.19,West,276,7.6,9.1,75,0.00,,,0.00,CWS Microserver 1.4,2013-01-09 14:53:00,
2013-01-09 08:58:00,26.6,19.3,30.19,West,269,5.1,9.1,73,0.00,,,0.00,CWS Microserver 1.4,2013-01-09 14:58:00,
2013-01-09 09:08:00,26.6,19.3,30.20,West,276,8.3,8.3,73,0.00,,,0.00,CWS Microserver 1.4,2013-01-09 15:08:00,
2013-01-09 09:13:00,26.6,19.5,30.20,West,281,9.4,9.6,74,0.00,,,0.00,CWS Microserver 1.4,2013-01-09 15:13:00,
2013-01-09 09:18:00,26.1,19.0,30.19,WNW,284,7.5,10.8,74,0.00,,,0.00,CWS Microserver 1.4,2013-01-09 15:18:00,
2013-01-09 09:23:00,26.1,19.3,30.20,WNW,283,9.2,11.0,75,0.00,,,0.00,CWS Microserver 1.4,2013-01-09 15:23:00,
2013-01-09 09:28:00,26.5,19.6,30.19,WNW,298,7.2,11.0,75,0.00,,,0.00,CWS Microserver 1.4,2013-01-09 15:28:00,
2013-01-09 09:33:00,27.2,19.8,30.19,WNW,299,6.7,10.4,73,0.00,,,0.00,CWS Microserver 1.4,2013-01-09 15:33:00,
2013-01-09 09:38:00,27.2,19.9,30.20,West,280,5.5,10.2,73,0.00,,,0.00,CWS Microserver 1.4,2013-01-09 15:38:00,
2013-01-09 09:43:00,27.4,19.9,30.21,WSW,253,6.1,10.2,73,0.00,,,0.00,CWS Microserver 1.4,2013-01-09 15:43:00,
2013-01-09 09:48:00,27.5,19.8,30.23,SW,216,7.7,10.0,72,0.00,,,0.00,CWS Microserver 1.4,2013-01-09 15:48:00,
2013-01-09 09:53:00,27.7,20.4,30.24,SW,223,9.0,12.0,73,0.00,,,0.00,CWS Microserver 1.4,2013-01-09 15:53:00,
2013-01-09 09:58:00,28.4,20.7,30.26,SW,223,8.1,12.5,72,0.00,,,0.00,CWS Microserver 1.4,2013-01-09 15:58:00,
2013-01-09 10:03:00,28.8,20.8,30.26,SW,226,10.2,12.5,71,0.00,,,0.00,CWS Microserver 1.4,2013-01-09 16:03:00,
2013-01-09 10:13:00,29.2,21.3,30.27,SW,233,7.8,11.2,72,0.00,,,0.00,CWS Microserver 1.4,2013-01-09 16:13:00,
2013-01-09 10:18:00,29.2,21.5,30.27,SW,219,8.8,10.4,72,0.00,,,0.00,CWS Microserver 1.4,2013-01-09 16:18:00,
2013-01-09 10:23:00,29.3,21.2,30.27,SW,229,3.4,10.8,71,0.00,,,0.00,CWS Microserver 1.4,2013-01-09 16:23:00,
2013-01-09 10:28:00,30.2,21.4,30.27,WSW,249,6.4,10.8,69,0.00,,,0.00,CWS Microserver 1.4,2013-01-09 16:28:00,
2013-01-09 10:33:00,30.6,21.6,30.28,SW,231,6.9,9.8,68,0.00,,,0.00,CWS Microserver 1.4,2013-01-09 16:33:00,
2013-01-09 10:38:00,31.0,21.7,30.28,SW,217,6.4,9.8,68,0.00,,,0.00,CWS Microserver 1.4,2013-01-09 16:38:00,
2013-01-09 10:43:00,31.3,21.5,30.28,SW,225,5.3,10.0,66,0.00,,,0.00,CWS Microserver 1.4,2013-01-09 16:43:00,
2013-01-09 10:48:00,31.7,21.7,30.28,WSW,238,6.5,10.0,66,0.00,,,0.00,CWS Microserver 1.4,2013-01-09 16:48:00,
2013-01-09 10:53:00,31.9,21.8,30.28,WSW,257,5.5,10.1,65,0.00,,,0.00,CWS Microserver 1.4,2013-01-09 16:53:00,
2013-01-09 10:58:00,32.1,21.8,30.28,SW,235,6.4,10.8,65,0.00,,,0.00,CWS Microserver 1.4,2013-01-09 16:58:00,
2013-01-09 11:03:00,32.5,21.0,30.28,WSW,257,4.7,12.4,62,0.00,,,0.00,CWS Microserver 1.4,2013-01-09 17:03:00,
2013-01-09 11:08:00,32.5,20.9,30.28,West,259,8.8,12.4,61,0.00,,,0.00,CWS Microserver 1.4,2013-01-09 17:08:00,
2013-01-09 11:13:00,32.7,21.0,30.29,West,267,7.4,12.7,61,0.00,,,0.00,CWS Microserver 1.4,2013-01-09 17:13:00,
2013-01-09 11:18:00,32.9,21.7,30.29,West,264,13.5,13.8,63,0.00,,,0.00,CWS Microserver 1.4,2013-01-09 17:18:00,
2013-01-09 11:23:00,33.0,21.7,30.29,West,259,9.2,13.8,62,0.00,,,0.00,CWS Microserver 1.4,2013-01-09 17:23:00,
2013-01-09 11:28:00,33.0,21.1,30.29,WSW,246,7.4,13.6,61,0.00,,,0.00,CWS Microserver 1.4,2013-01-09 17:28:00,
2013-01-09 11:33:00,33.2,21.8,30.29,West,260,11.3,12.2,62,0.00,,,0.00,CWS Microserver 1.4,2013-01-09 17:33:00,
2013-01-09 11:38:00,33.4,22.3,30.30,SW,227,4.1,12.2,63,0.00,,,0.00,CWS Microserver 1.4,2013-01-09 17:38:00,
2013-01-09 11:43:00,33.6,22.0,30.30,WSW,247,9.5,12.1,62,0.00,,,0.00,CWS Microserver 1.4,2013-01-09 17:43:00,
2013-01-09 11:48:00,33.0,22.5,30.30,WSW,239,8.9,12.1,65,0.00,,,0.00,CWS Microserver 1.4,2013-01-09 17:48:00,
2013-01-09 11:53:00,32.9,21.7,30.30,WSW,241,7.4,12.1,63,0.00,,,0.00,CWS Microserver 1.4,2013-01-09 17:53:00,
2013-01-09 11:58:00,33.0,22.1,30.30,WSW,250,11.7,11.7,64,0.00,,,0.00,CWS Microserver 1.4,2013-01-09 17:58:00,
2013-01-09 12:03:00,33.0,22.1,30.30,WSW,254,7.3,12.0,64,0.00,,,0.00,CWS Microserver 1.4,2013-01-09 18:03:00,
2013-01-09 12:08:00,33.2,22.3,30.30,WSW,238,7.9,12.0,63,0.00,,,0.00,CWS Microserver 1.4,2013-01-09 18:08:00,
2013-01-09 12:13:00,33.2,22.6,30.30,WSW,241,7.3,10.5,64,0.00,,,0.00,CWS Microserver 1.4,2013-01-09 18:13:00,
2013-01-09 12:18:00,33.4,22.3,30.30,SW,214,7.6,12.2,63,0.00,,,0.00,CWS Microserver 1.4,2013-01-09 18:18:00,
2013-01-09 12:23:00,33.6,22.4,30.30,SSW,212,9.3,12.2,63,0.00,,,0.00,CWS Microserver 1.4,2013-01-09 18:23:00,
2013-01-09 12:28:00,33.4,22.7,30.31,SW,217,9.7,13.8,64,0.00,,,0.00,CWS Microserver 1.4,2013-01-09 18:28:00,
2013-01-09 12:33:00,33.0,23.1,30.31,SW,226,10.7,15.0,66,0.00,,,0.00,CWS Microserver 1.4,2013-01-09 18:33:00,
2013-01-09 12:38:00,32.7,23.7,30.31,SW,227,10.9,15.0,69,0.00,,,0.00,CWS Microserver 1.4,2013-01-09 18:38:00,
2013-01-09 12:43:00,32.5,23.2,30.31,SW,229,11.7,16.1,68,0.00,,,0.00,CWS Microserver 1.4,2013-01-09 18:43:00,
2013-01-09 12:48:00,32.5,23.3,30.31,WSW,241,6.2,16.1,68,0.00,,,0.00,CWS Microserver 1.4,2013-01-09 18:48:00,
2013-01-09 12:53:00,32.7,23.6,30.32,SW,215,6.5,14.8,68,0.00,,,0.00,CWS Microserver 1.4,2013-01-09 18:53:00,
2013-01-09 12:58:00,32.5,22.5,30.32,SW,230,10.8,15.5,66,0.00,,,0.00,CWS Microserver 1.4,2013-01-09 18:58:00,
2013-01-09 13:03:00,32.5,23.1,30.32,WSW,241,8.1,15.5,67,0.00,,,0.00,CWS Microserver 1.4,2013-01-09 19:03:00,
2013-01-09 13:08:00,32.5,23.2,30.31,WSW,253,11.6,17.0,68,0.00,,,0.00,CWS Microserver 1.4,2013-01-09 19:08:00,
2013-01-09 13:13:00,32.5,23.6,30.32,WSW,247,9.8,17.0,69,0.00,,,0.00,CWS Microserver 1.4,2013-01-09 19:13:00,
2013-01-09 13:18:00,32.7,23.8,30.32,WSW,238,8.9,16.1,69,0.00,,,0.00,CWS Microserver 1.4,2013-01-09 19:18:00,
2013-01-09 13:23:00,32.9,24.0,30.33,WSW,252,9.4,15.3,69,0.00,,,0.00,CWS Microserver 1.4,2013-01-09 19:23:00,
2013-01-09 13:28:00,32.9,23.8,30.33,WSW,241,7.4,15.3,69,0.00,,,0.00,CWS Microserver 1.4,2013-01-09 19:28:00,
2013-01-09 13:33:00,32.9,23.8,30.33,SW,222,10.8,14.2,69,0.00,,,0.00,CWS Microserver 1.4,2013-01-09 19:33:00,
2013-01-09 13:38:00,32.9,24.0,30.33,SW,224,12.2,19.8,69,0.00,,,0.00,CWS Microserver 1.4,2013-01-09 19:38:00,
2013-01-09 13:43:00,33.2,24.1,30.34,SW,229,12.7,19.8,68,0.00,,,0.00,CWS Microserver 1.4,2013-01-09 19:43:00,
2013-01-09 13:48:00,33.4,25.0,30.34,SW,230,9.5,18.0,71,0.00,,,0.00,CWS Microserver 1.4,2013-01-09 19:48:00,
2013-01-09 13:53:00,33.4,24.3,30.33,SW,221,11.0,18.3,68,0.00,,,0.00,CWS Microserver 1.4,2013-01-09 19:53:00,
2013-01-09 13:58:00,33.6,24.6,30.33,SW,232,7.6,18.3,69,0.00,,,0.00,CWS Microserver 1.4,2013-01-09 19:58:00,
2013-01-09 14:03:00,33.9,24.5,30.33,SW,230,5.9,12.8,68,0.00,,,0.00,CWS Microserver 1.4,2013-01-09 20:03:00,
2013-01-09 14:08:00,33.9,25.2,30.33,SW,227,10.1,14.6,70,0.00,,,0.00,CWS Microserver 1.4,2013-01-09 20:08:00,
2013-01-09 14:13:00,33.9,25.6,30.33,SW,230,6.7,14.6,71,0.00,,,0.00,CWS Microserver 1.4,2013-01-09 20:13:00,
2013-01-09 14:18:00,33.9,25.7,30.33,WSW,241,7.1,13.1,71,0.00,,,0.00,CWS Microserver 1.4,2013-01-09 20:18:00,
2013-01-09 14:23:00,34.1,25.2,30.32,SW,219,6.3,13.1,69,0.00,,,0.00,CWS Microserver 1.4,2013-01-09 20:23:00,
2013-01-09 14:28:00,34.3,25.5,30.32,WSW,237,3.4,11.6,69,0.00,,,0.00,CWS Microserver 1.4,2013-01-09 20:28:00,
2013-01-09 14:38:00,34.5,25.6,30.32,WSW,243,10.0,10.3,69,0.00,,,0.00,CWS Microserver 1.4,2013-01-09 20:38:00,
2013-01-09 14:43:00,34.5,25.7,30.31,WSW,252,6.5,10.6,69,0.00,,,0.00,CWS Microserver 1.4,2013-01-09 20:43:00,
2013-01-09 14:48:00,34.7,25.6,30.31,WSW,248,5.7,10.6,69,0.00,,,0.00,CWS Microserver 1.4,2013-01-09 20:48:00,
2013-01-09 14:53:00,34.8,25.5,30.31,SW,231,6.2,9.1,68,0.00,,,0.00,CWS Microserver 1.4,2013-01-09 20:53:00,
2013-01-09 14:58:00,34.5,25.9,30.33,SW,229,12.9,15.7,70,0.00,,,0.00,CWS Microserver 1.4,2013-01-09 20:58:00,
2013-01-09 15:03:00,34.3,25.5,30.31,SW,225,4.2,15.7,70,0.00,,,0.00,CWS Microserver 1.4,2013-01-09 21:03:00,
2013-01-09 15:08:00,34.8,25.3,30.30,SW,233,4.0,14.9,68,0.00,,,0.00,CWS Microserver 1.4,2013-01-09 21:08:00,
2013-01-09 15:13:00,35.0,25.7,30.31,SW,235,3.1,7.2,68,0.00,,,0.00,CWS Microserver 1.4,2013-01-09 21:13:00,
2013-01-09 15:18:00,34.8,25.8,30.31,SSW,193,3.4,7.2,69,0.00,,,0.00,CWS Microserver 1.4,2013-01-09 21:18:00,
2013-01-09 15:23:00,35.4,25.8,30.30,SSW,205,2.0,6.9,67,0.00,,,0.00,CWS Microserver 1.4,2013-01-09 21:23:00,
2013-01-09 15:28:00,35.2,25.8,30.30,South,189,0.9,4.9,68,0.00,,,0.00,CWS Microserver 1.4,2013-01-09 21:28:00,
2013-01-09 15:33:00,35.6,25.8,30.30,South,184,1.9,4.9,67,0.00,,,0.00,CWS Microserver 1.4,2013-01-09 21:33:00,
2013-01-09 15:38:00,35.2,25.9,30.30,East,92,0.9,3.8,68,0.00,,,0.00,CWS Microserver 1.4,2013-01-09 21:38:00,
2013-01-09 15:43:00,34.7,25.5,30.30,SSE,150,1.0,3.9,68,0.00,,,0.00,CWS Microserver 1.4,2013-01-09 21:43:00,
2013-01-09 15:48:00,35.0,25.7,30.30,South,181,3.8,4.2,68,0.00,,,0.00,CWS Microserver 1.4,2013-01-09 21:48:00,
2013-01-09 15:53:00,34.3,25.7,30.30,SSE,165,2.9,4.3,70,0.00,,,0.00,CWS Microserver 1.4,2013-01-09 21:53:00,
2013-01-09 15:58:00,34.7,25.7,30.30,South,190,1.8,4.3,69,0.00,,,0.00,CWS Microserver 1.4,2013-01-09 21:58:00,
2013-01-09 16:03:00,35.2,25.9,30.30,SSW,202,1.1,3.6,68,0.00,,,0.00,CWS Microserver 1.4,2013-01-09 22:03:00,
2013-01-09 16:08:00,35.2,25.8,30.30,SSW,193,3.0,3.5,68,0.00,,,0.00,CWS Microserver 1.4,2013-01-09 22:08:00,
2013-01-09 16:13:00,34.5,25.7,30.30,South,179,5.5,6.2,69,0.00,,,0.00,CWS Microserver 1.4,2013-01-09 22:13:00,
2013-01-09 16:18:00,34.1,25.7,30.30,South,186,4.7,6.7,71,0.00,,,0.00,CWS Microserver 1.4,2013-01-09 22:18:00,
2013-01-09 16:23:00,33.4,25.3,30.30,SSE,167,4.6,6.7,71,0.00,,,0.00,CWS Microserver 1.4,2013-01-09 22:23:00,
2013-01-09 16:28:00,32.7,25.2,30.30,South,177,3.9,7.1,73,0.00,,,0.00,CWS Microserver 1.4,2013-01-09 22:28:00,
2013-01-09 16:33:00,32.5,25.1,30.30,SSE,150,1.3,7.1,74,0.00,,,0.00,CWS Microserver 1.4,2013-01-09 22:33:00,
2013-01-09 16:38:00,32.5,25.4,30.30,SE,125,3.8,5.5,74,0.00,,,0.00,CWS Microserver 1.4,2013-01-09 22:38:00,
2013-01-09 16:43:00,32.3,25.3,30.30,SSE,168,5.2,6.6,75,0.00,,,0.00,CWS Microserver 1.4,2013-01-09 22:43:00,
2013-01-09 16:48:00,32.0,25.4,30.30,South,173,4.8,7.0,76,0.00,,,0.00,CWS Microserver 1.4,2013-01-09 22:48:00,
2013-01-09 16:53:00,31.0,24.5,30.30,South,173,7.4,7.4,76,0.00,,,0.00,CWS Microserver 1.4,2013-01-09 22:53:00,
2013-01-09 16:58:00,31.1,24.5,30.29,SSE,168,5.2,9.2,76,0.00,,,0.00,CWS Microserver 1.4,2013-01-09 22:58:00,
2013-01-09 17:03:00,30.6,24.3,30.29,South,173,5.9,9.2,77,0.00,,,0.00,CWS Microserver 1.4,2013-01-09 23:03:00,
2013-01-09 17:08:00,29.9,24.4,30.30,SSE,151,5.8,7.5,79,0.00,,,0.00,CWS Microserver 1.4,2013-01-09 23:08:00,
2013-01-09 17:13:00,29.9,24.5,30.29,SSE,155,7.4,8.2,80,0.00,,,0.00,CWS Microserver 1.4,2013-01-09 23:13:00,
2013-01-09 17:18:00,29.7,24.1,30.29,SE,146,7.0,8.3,79,0.00,,,0.00,CWS Microserver 1.4,2013-01-09 23:18:00,
2013-01-09 17:23:00,29.5,23.9,30.29,SSE,158,9.2,9.2,79,0.00,,,0.00,CWS Microserver 1.4,2013-01-09 23:23:00,
2013-01-09 17:28:00,29.3,23.9,30.28,SSE,166,8.5,9.5,80,0.00,,,0.00,CWS Microserver 1.4,2013-01-09 23:28:00,
2013-01-09 17:33:00,29.2,24.0,30.28,SSE,159,8.7,10.6,80,0.00,,,0.00,CWS Microserver 1.4,2013-01-09 23:33:00,
2013-01-09 17:38:00,29.2,24.3,30.28,South,176,8.5,10.6,81,0.00,,,0.00,CWS Microserver 1.4,2013-01-09 23:38:00,
2013-01-09 17:43:00,30.2,24.8,30.28,SSE,167,6.1,11.9,80,0.00,,,0.00,CWS Microserver 1.4,2013-01-09 23:43:00,
2013-01-09 17:48:00,29.2,24.3,30.27,SSE,156,5.0,11.9,81,0.00,,,0.00,CWS Microserver 1.4,2013-01-09 23:48:00,
2013-01-09 17:53:00,29.3,24.4,30.27,SSE,162,7.8,7.8,81,0.00,,,0.00,CWS Microserver 1.4,2013-01-09 23:53:00,
2013-01-09 17:58:00,29.0,23.2,30.28,SSE,151,1.8,7.8,78,0.00,,,0.00,CWS Microserver 1.4,2013-01-09 23:58:00,
2013-01-09 18:03:00,27.9,23.1,30.28,SSE,158,4.8,7.8,82,0.00,,,0.00,CWS Microserver 1.4,2013-01-10 00:03:00,
2013-01-09 18:08:00,28.1,23.6,30.29,SSE,163,8.2,9.6,83,0.00,,,0.00,CWS Microserver 1.4,2013-01-10 00:08:00,
2013-01-09 18:13:00,29.3,24.6,30.29,South,180,8.1,13.1,82,0.00,,,0.00,CWS Microserver 1.4,2013-01-10 00:13:00,
2013-01-09 18:18:00,30.1,24.3,30.28,South,173,8.7,13.1,78,0.00,,,0.00,CWS Microserver 1.4,2013-01-10 00:18:00,
2013-01-09 18:23:00,29.9,24.1,30.29,South,181,6.4,10.9,78,0.00,,,0.00,CWS Microserver 1.4,2013-01-10 00:23:00,
2013-01-09 18:28:00,29.9,24.3,30.29,South,190,6.6,12.5,79,0.00,,,0.00,CWS Microserver 1.4,2013-01-10 00:28:00,
2013-01-09 18:33:00,30.1,24.1,30.29,South,177,11.1,12.5,78,0.00,,,0.00,CWS Microserver 1.4,2013-01-10 00:33:00,
2013-01-09 18:38:00,29.3,23.5,30.29,SSE,155,9.0,11.6,78,0.00,,,0.00,CWS Microserver 1.4,2013-01-10 00:38:00,
2013-01-09 18:43:00,29.0,23.8,30.29,South,177,7.2,11.6,80,0.00,,,0.00,CWS Microserver 1.4,2013-01-10 00:43:00,
2013-01-09 18:48:00,29.5,23.7,30.29,SSE,150,8.0,12.4,78,0.00,,,0.00,CWS Microserver 1.4,2013-01-10 00:48:00,
2013-01-09 18:53:00,29.5,24.2,30.29,SSE,162,10.6,12.4,80,0.00,,,0.00,CWS Microserver 1.4,2013-01-10 00:53:00,
2013-01-09 18:58:00,29.5,24.1,30.29,SSE,166,12.6,14.3,80,0.00,,,0.00,CWS Microserver 1.4,2013-01-10 00:58:00,
2013-01-09 19:03:00,30.4,25.0,30.29,South,171,10.1,17.1,80,0.00,,,0.00,CWS Microserver 1.4,2013-01-10 01:03:00,
2013-01-09 19:13:00,30.2,24.7,30.29,SSE,162,10.7,15.8,79,0.00,,,0.00,CWS Microserver 1.4,2013-01-10 01:13:00,
2013-01-09 19:18:00,29.0,23.8,30.29,SSE,155,11.0,15.5,80,0.00,,,0.00,CWS Microserver 1.4,2013-01-10 01:18:00,
2013-01-09 19:23:00,29.2,24.6,30.29,South,174,10.6,13.6,82,0.00,,,0.00,CWS Microserver 1.4,2013-01-10 01:23:00,
2013-01-09 19:28:00,29.3,24.3,30.29,SSE,163,11.6,12.9,81,0.00,,,0.00,CWS Microserver 1.4,2013-01-10 01:28:00,
2013-01-09 19:33:00,28.8,24.1,30.29,SSE,168,11.0,13.2,82,0.00,,,0.00,CWS Microserver 1.4,2013-01-10 01:33:00,
2013-01-09 19:38:00,29.3,24.9,30.28,SSE,166,8.6,14.1,83,0.00,,,0.00,CWS Microserver 1.4,2013-01-10 01:38:00,
2013-01-09 19:43:00,29.5,24.9,30.28,SSE,165,10.3,14.1,82,0.00,,,0.00,CWS Microserver 1.4,2013-01-10 01:43:00,
2013-01-09 19:48:00,30.1,25.3,30.28,SSE,160,9.1,15.0,82,0.00,,,0.00,CWS Microserver 1.4,2013-01-10 01:48:00,
2013-01-09 19:53:00,29.7,24.9,30.28,South,175,12.2,15.0,82,0.00,,,0.00,CWS Microserver 1.4,2013-01-10 01:53:00,
2013-01-09 19:58:00,29.7,24.9,30.28,South,174,12.7,15.1,82,0.00,,,0.00,CWS Microserver 1.4,2013-01-10 01:58:00,
2013-01-09 20:03:00,29.5,24.7,30.29,South,177,11.2,15.3,82,0.00,,,0.00,CWS Microserver 1.4,2013-01-10 02:03:00,
2013-01-09 20:08:00,29.5,24.7,30.29,South,183,8.6,15.3,82,0.00,,,0.00,CWS Microserver 1.4,2013-01-10 02:08:00,
2013-01-09 20:13:00,29.3,24.6,30.28,South,182,10.5,14.5,82,0.00,,,0.00,CWS Microserver 1.4,2013-01-10 02:13:00,
2013-01-09 20:18:00,29.2,24.6,30.28,South,178,12.1,14.0,82,0.00,,,0.00,CWS Microserver 1.4,2013-01-10 02:18:00,
2013-01-09 20:23:00,29.3,24.6,30.28,South,179,13.9,14.0,82,0.00,,,0.00,CWS Microserver 1.4,2013-01-10 02:23:00,
2013-01-09 20:28:00,29.2,24.6,30.28,South,175,11.6,14.0,82,0.00,,,0.00,CWS Microserver 1.4,2013-01-10 02:28:00,
2013-01-09 20:33:00,29.2,24.7,30.28,South,181,11.0,14.5,83,0.00,,,0.00,CWS Microserver 1.4,2013-01-10 02:33:00,
2013-01-09 20:38:00,29.5,24.7,30.28,South,179,12.3,15.1,82,0.00,,,0.00,CWS Microserver 1.4,2013-01-10 02:38:00,
2013-01-09 20:43:00,29.3,24.9,30.27,SSW,199,7.4,15.1,83,0.00,,,0.00,CWS Microserver 1.4,2013-01-10 02:43:00,
2013-01-09 20:48:00,29.7,25.1,30.27,South,178,10.7,12.8,82,0.00,,,0.00,CWS Microserver 1.4,2013-01-10 02:48:00,
2013-01-09 20:53:00,29.5,25.1,30.27,South,189,8.9,12.5,83,0.00,,,0.00,CWS Microserver 1.4,2013-01-10 02:53:00,
2013-01-09 20:58:00,29.5,25.0,30.27,South,179,8.8,13.0,83,0.00,,,0.00,CWS Microserver 1.4,2013-01-10 02:58:00,
2013-01-09 21:03:00,29.3,25.1,30.26,South,182,12.0,13.0,84,0.00,,,0.00,CWS Microserver 1.4,2013-01-10 03:03:00,
2013-01-09 21:08:00,29.9,25.6,30.26,South,172,10.6,14.4,83,0.00,,,0.00,CWS Microserver 1.4,2013-01-10 03:08:00,
2013-01-09 21:13:00,29.9,25.5,30.26,South,173,8.9,14.7,83,0.00,,,0.00,CWS Microserver 1.4,2013-01-10 03:13:00,
2013-01-09 21:18:00,29.9,25.7,30.26,South,172,12.6,15.1,84,0.00,,,0.00,CWS Microserver 1.4,2013-01-10 03:18:00,
2013-01-09 21:23:00,30.6,26.1,30.26,South,185,12.8,17.0,83,0.00,,,0.00,CWS Microserver 1.4,2013-01-10 03:23:00,
2013-01-09 21:28:00,30.6,26.2,30.26,SSW,193,12.7,17.5,83,0.00,,,0.00,CWS Microserver 1.4,2013-01-10 03:28:00,
2013-01-09 21:33:00,30.8,26.4,30.26,South,187,14.6,17.5,83,0.00,,,0.00,CWS Microserver 1.4,2013-01-10 03:33:00,
2013-01-09 21:38:00,30.6,26.1,30.26,South,191,14.3,18.9,83,0.00,,,0.00,CWS Microserver 1.4,2013-01-10 03:38:00,
2013-01-09 21:43:00,30.2,26.1,30.26,South,175,17.9,18.9,84,0.00,,,0.00,CWS Microserver 1.4,2013-01-10 03:43:00,
2013-01-09 21:48:00,30.2,26.2,30.26,SSW,192,10.4,18.7,84,0.00,,,0.00,CWS Microserver 1.4,2013-01-10 03:48:00,
2013-01-09 21:53:00,30.2,26.1,30.26,South,180,17.3,17.9,84,0.00,,,0.00,CWS Microserver 1.4,2013-01-10 03:53:00,
2013-01-09 21:58:00,30.1,26.0,30.26,South,185,12.7,19.9,84,0.00,,,0.00,CWS Microserver 1.4,2013-01-10 03:58:00,
2013-01-09 22:03:00,29.9,26.0,30.26,South,187,14.1,19.9,85,0.00,,,0.00,CWS Microserver 1.4,2013-01-10 04:03:00,
2013-01-09 22:08:00,29.9,25.9,30.26,South,182,10.1,17.9,84,0.00,,,0.00,CWS Microserver 1.4,2013-01-10 04:08:00,
2013-01-09 22:13:00,29.7,25.8,30.26,SSW,192,11.9,18.8,85,0.00,,,0.00,CWS Microserver 1.4,2013-01-10 04:13:00,
2013-01-09 22:18:00,29.7,25.6,30.26,South,183,12.8,18.8,84,0.00,,,0.00,CWS Microserver 1.4,2013-01-10 04:18:00,
2013-01-09 22:23:00,29.7,25.7,30.26,SSW,196,10.7,17.8,84,0.00,,,0.00,CWS Microserver 1.4,2013-01-10 04:23:00,
2013-01-09 22:28:00,29.2,25.2,30.25,South,185,13.2,17.8,84,0.00,,,0.00,CWS Microserver 1.4,2013-01-10 04:28:00,
2013-01-09 22:33:00,29.2,25.4,30.25,SSW,192,10.2,16.5,85,0.00,,,0.00,CWS Microserver 1.4,2013-01-10 04:33:00,
2013-01-09 22:38:00,29.2,25.3,30.26,SSW,192,10.5,16.3,85,0.00,,,0.00,CWS Microserver 1.4,2013-01-10 04:38:00,
2013-01-09 22:43:00,29.0,25.1,30.26,SSW,199,9.1,14.1,85,0.00,,,0.00,CWS Microserver 1.4,2013-01-10 04:43:00,
2013-01-09 22:48:00,29.0,25.1,30.26,SSW,193,9.0,14.1,85,0.00,,,0.00,CWS Microserver 1.4,2013-01-10 04:48:00,
2013-01-09 22:53:00,29.0,24.9,30.25,South,186,11.1,14.1,84,0.00,,,0.00,CWS Microserver 1.4,2013-01-10 04:53:00,
2013-01-09 22:58:00,29.2,25.3,30.25,South,183,9.5,13.5,85,0.00,,,0.00,CWS Microserver 1.4,2013-01-10 04:58:00,
2013-01-09 23:03:00,29.3,25.2,30.25,South,191,8.6,13.5,84,0.00,,,0.00,CWS Microserver 1.4,2013-01-10 05:03:00,
2013-01-09 23:08:00,29.5,25.3,30.25,South,185,7.2,12.0,84,0.00,,,0.00,CWS Microserver 1.4,2013-01-10 05:08:00,
2013-01-09 23:13:00,29.7,25.4,30.25,SSW,202,8.9,11.0,83,0.00,,,0.00,CWS Microserver 1.4,2013-01-10 05:13:00,
2013-01-09 23:18:00,30.1,25.6,30.26,SSW,194,7.0,12.3,83,0.00,,,0.00,CWS Microserver 1.4,2013-01-10 05:18:00,
2013-01-09 23:23:00,30.2,25.5,30.25,SSW,192,8.1,12.3,82,0.00,,,0.00,CWS Microserver 1.4,2013-01-10 05:23:00,
2013-01-09 23:28:00,30.4,25.5,30.25,South,188,10.8,12.8,81,0.00,,,0.00,CWS Microserver 1.4,2013-01-10 05:28:00,
2013-01-09 23:33:00,30.4,25.4,30.26,South,182,12.0,12.8,81,0.00,,,0.00,CWS Microserver 1.4,2013-01-10 05:33:00,
2013-01-09 23:38:00,30.6,25.5,30.25,South,190,11.7,17.2,81,0.00,,,0.00,CWS Microserver 1.4,2013-01-10 05:38:00,
2013-01-09 23:43:00,31.0,25.5,30.25,SSW,199,11.3,17.2,79,0.00,,,0.00,CWS Microserver 1.4,2013-01-10 05:43:00,
2013-01-09 23:48:00,31.1,25.5,30.25,SSW,199,11.0,16.4,79,0.00,,,0.00,CWS Microserver 1.4,2013-01-10 05:48:00,
2013-01-09 23:58:00,31.9,25.8,30.26,SSW,203,13.8,18.6,77,0.00,,,0.00,CWS Microserver 1.4,2013-01-10 05:58:00,